Time;durP1;ratioP1;P1;durP2;ratioP2;P2;SDS_P1;SDS_P2;PMS_P1;PMS_P2;Temp;Humidity;BMP_temperature;BMP_pressure;BME280_temperature;BME280_humidity;BME280_pressure;Samples;Min_cycle;Max_cycle;Signal;HPM_P1;HPM_P2
2022/01/11 00:01:00;;;;;;;;;;;2.50;99.90;;;;;;5037162;28;19909;-46
2022/01/11 00:03:26;;;;;;;;;;;2.50;99.90;;;;;;5054914;28;19962;-45
2022/01/11 00:06:02;;;;;;;;;;;2.50;99.90;;;;;;5054524;28;20291;-47
2022/01/11 00:08:32;;;;;;;;;;;2.50;99.90;;;;;;5054866;28;19992;-48
2022/01/11 00:11:05;;;;;;;;;;;2.50;99.90;;;;;;5036881;28;19909;-49
2022/01/11 00:13:31;;;;;;;;;;;2.60;99.90;;;;;;5054600;28;20333;-50
2022/01/11 00:15:57;;;;;;;;;;;2.60;99.90;;;;;;5055005;28;19955;-46
2022/01/11 00:18:22;;;;;;;;;;;2.70;99.90;;;;;;5054438;28;19952;-48
2022/01/11 00:20:48;;;;;;;;;;;2.70;99.90;;;;;;5054288;28;19908;-47
2022/01/11 00:25:41;;;;;;;;;;;2.70;99.90;;;;;;5054602;28;20363;-45
2022/01/11 00:28:07;;;;;;;;;;;2.60;99.90;;;;;;5054247;28;19913;-47
2022/01/11 00:30:36;;;;;;;;;;;2.60;99.90;;;;;;5054432;28;19909;-47
2022/01/11 00:33:05;;;;;;;;;;;2.50;99.90;;;;;;5054444;28;19908;-45
2022/01/11 00:35:40;;;;;;;;;;;2.60;99.90;;;;;;5054060;28;20346;-47
2022/01/11 00:38:07;;;;;;;;;;;2.60;99.90;;;;;;5053526;28;19910;-47
2022/01/11 00:40:32;;;;;;;;;;;2.70;99.90;;;;;;5036589;28;20271;-45
2022/01/11 00:42:59;;;;;;;;;;;2.70;99.90;;;;;;5053928;28;19908;-46
2022/01/11 00:45:28;;;;;;;;;;;2.70;99.90;;;;;;5053977;28;19975;-47
2022/01/11 00:47:54;;;;;;;;;;;2.60;99.90;;;;;;5054304;28;19909;-46
2022/01/11 00:50:20;;;;;;;;;;;2.60;99.90;;;;;;5053891;28;19909;-47
2022/01/11 00:52:45;;;;;;;;;;;2.60;99.90;;;;;;5053881;28;19909;-47
2022/01/11 00:55:11;;;;;;;;;;;2.60;99.90;;;;;;5054180;28;20355;-45
2022/01/11 00:57:36;;;;;;;;;;;2.50;99.90;;;;;;5053858;28;19948;-47
2022/01/11 01:00:07;;;;;;;;;;;2.50;99.90;;;;;;5053923;28;20240;-45
2022/01/11 01:02:33;;;;;;;;;;;2.50;99.90;;;;;;5053849;28;20437;-49
2022/01/11 01:04:59;;;;;;;;;;;2.50;99.90;;;;;;5053722;28;19949;-45
2022/01/11 01:07:24;;;;;;;;;;;2.60;99.90;;;;;;5054040;28;19952;-46
2022/01/11 01:10:03;;;;;;;;;;;2.30;99.90;;;;;;5054023;28;19912;-48
2022/01/11 01:12:28;;;;;;;;;;;2.30;99.90;;;;;;5054036;28;19909;-45
2022/01/11 01:14:54;;;;;;;;;;;2.40;99.90;;;;;;5053789;28;19909;-49
2022/01/11 01:17:20;;;;;;;;;;;2.50;99.90;;;;;;5053843;28;19913;-45
2022/01/11 01:19:45;;;;;;;;;;;2.50;99.90;;;;;;5053631;28;19962;-51
2022/01/11 01:22:11;;;;;;;;;;;2.40;99.90;;;;;;5053484;28;19909;-47
2022/01/11 01:24:36;;;;;;;;;;;2.40;99.90;;;;;;5053881;28;19913;-45
2022/01/11 01:27:02;;;;;;;;;;;2.40;99.90;;;;;;5053542;28;19924;-46
2022/01/11 01:29:27;;;;;;;;;;;2.50;99.90;;;;;;5053961;28;19909;-49
2022/01/11 01:31:53;;;;;;;;;;;2.50;99.90;;;;;;5053749;28;20344;-47
2022/01/11 01:34:19;;;;;;;;;;;2.60;99.90;;;;;;5053777;28;19916;-46
2022/01/11 01:36:44;;;;;;;;;;;2.60;99.90;;;;;;5053748;28;20379;-48
2022/01/11 01:39:10;;;;;;;;;;;2.70;99.90;;;;;;5053726;28;19908;-45
2022/01/11 01:41:35;;;;;;;;;;;2.70;99.90;;;;;;5053366;28;19994;-44
2022/01/11 01:44:02;;;;;;;;;;;2.60;99.90;;;;;;5053289;28;19916;-45
2022/01/11 01:46:28;;;;;;;;;;;2.60;99.90;;;;;;5053607;28;19913;-46
2022/01/11 01:48:56;;;;;;;;;;;2.40;99.90;;;;;;5036761;28;19915;-45
2022/01/11 01:51:21;;;;;;;;;;;2.50;99.90;;;;;;5057513;28;20351;-53
2022/01/11 01:53:48;;;;;;;;;;;2.50;99.90;;;;;;5039626;28;20008;-47
2022/01/11 01:56:15;;;;;;;;;;;2.50;99.90;;;;;;5057166;28;19999;-47
2022/01/11 01:58:42;;;;;;;;;;;2.50;99.90;;;;;;5057458;28;20423;-46
2022/01/11 02:01:08;;;;;;;;;;;2.60;99.90;;;;;;5057360;28;20363;-46
2022/01/11 02:03:39;;;;;;;;;;;2.70;99.90;;;;;;5057261;28;19916;-50
2022/01/11 02:06:07;;;;;;;;;;;2.80;99.90;;;;;;5039541;28;20275;-47
2022/01/11 02:08:33;;;;;;;;;;;2.90;99.90;;;;;;5057218;28;20343;-48
2022/01/11 02:10:58;;;;;;;;;;;2.90;99.90;;;;;;5056829;28;19951;-48
2022/01/11 02:13:24;;;;;;;;;;;2.80;99.90;;;;;;5056743;28;19916;-48
2022/01/11 02:15:51;;;;;;;;;;;2.60;99.90;;;;;;5057011;28;19952;-46
2022/01/11 02:18:22;;;;;;;;;;;2.70;99.90;;;;;;5057037;28;19995;-48
2022/01/11 02:20:49;;;;;;;;;;;2.60;99.90;;;;;;5057063;28;19917;-50
2022/01/11 02:23:15;;;;;;;;;;;2.50;99.90;;;;;;5056724;28;19928;-50
2022/01/11 02:25:41;;;;;;;;;;;2.50;99.90;;;;;;5056711;28;19913;-46
2022/01/11 02:28:08;;;;;;;;;;;2.50;99.90;;;;;;5056856;28;19916;-47
2022/01/11 02:30:34;;;;;;;;;;;2.70;99.90;;;;;;5056733;28;19908;-46
2022/01/11 02:33:01;;;;;;;;;;;2.70;99.90;;;;;;5056480;28;19932;-45
2022/01/11 02:35:27;;;;;;;;;;;2.70;99.90;;;;;;5056722;28;19970;-49
2022/01/11 02:37:53;;;;;;;;;;;2.60;99.90;;;;;;5056659;28;20359;-45
2022/01/11 02:40:19;;;;;;;;;;;2.70;99.90;;;;;;5056233;28;19999;-49
2022/01/11 02:42:45;;;;;;;;;;;2.70;99.90;;;;;;5056577;28;20340;-46
2022/01/11 02:45:14;;;;;;;;;;;2.60;99.90;;;;;;5056464;28;19962;-46
2022/01/11 02:47:40;;;;;;;;;;;2.70;99.90;;;;;;5056207;28;19913;-47
2022/01/11 02:50:06;;;;;;;;;;;2.80;99.90;;;;;;5056821;28;19909;-46
2022/01/11 02:52:31;;;;;;;;;;;2.80;99.90;;;;;;5056348;28;19936;-48
2022/01/11 02:54:57;;;;;;;;;;;3.00;99.90;;;;;;5056336;28;19909;-47
2022/01/11 02:57:22;;;;;;;;;;;2.90;99.90;;;;;;5056391;28;20011;-48
2022/01/11 02:59:48;;;;;;;;;;;2.90;99.90;;;;;;5055573;28;19909;-44
2022/01/11 03:02:13;;;;;;;;;;;3.00;99.90;;;;;;5055676;28;20381;-45
2022/01/11 03:04:39;;;;;;;;;;;3.00;99.90;;;;;;5056093;28;19920;-47
2022/01/11 03:07:05;;;;;;;;;;;3.10;99.90;;;;;;5056182;28;19913;-47
2022/01/11 03:09:39;;;;;;;;;;;3.20;99.90;;;;;;5056185;28;19944;-46
2022/01/11 03:12:05;;;;;;;;;;;3.10;99.90;;;;;;5055904;28;19908;-46
2022/01/11 03:14:31;;;;;;;;;;;3.10;99.90;;;;;;5055675;28;19915;-45
2022/01/11 03:16:56;;;;;;;;;;;3.10;99.90;;;;;;5055727;28;19939;-47
2022/01/11 03:19:22;;;;;;;;;;;3.00;99.90;;;;;;5055881;28;20473;-48
2022/01/11 03:21:47;;;;;;;;;;;3.00;99.90;;;;;;5055865;28;19908;-46
2022/01/11 03:24:13;;;;;;;;;;;3.00;99.90;;;;;;5055802;28;19928;-45
2022/01/11 03:26:40;;;;;;;;;;;3.00;99.90;;;;;;5055507;28;20256;-46
2022/01/11 03:29:05;;;;;;;;;;;3.10;99.90;;;;;;5055713;28;19948;-48
2022/01/11 03:31:31;;;;;;;;;;;3.10;99.90;;;;;;5055756;28;20371;-47
2022/01/11 03:33:56;;;;;;;;;;;2.90;99.90;;;;;;5055664;28;19909;-46
2022/01/11 03:36:22;;;;;;;;;;;2.80;99.90;;;;;;5055631;28;19919;-49
2022/01/11 03:38:47;;;;;;;;;;;2.80;99.90;;;;;;5055132;28;19944;-51
2022/01/11 03:41:13;;;;;;;;;;;2.90;99.90;;;;;;5055254;28;19916;-49
2022/01/11 03:43:38;;;;;;;;;;;3.00;99.90;;;;;;5055415;28;19928;-46
2022/01/11 03:46:04;;;;;;;;;;;3.00;99.90;;;;;;5055276;28;19916;-51
2022/01/11 03:48:29;;;;;;;;;;;3.00;99.90;;;;;;5055360;28;20008;-46
2022/01/11 03:50:56;;;;;;;;;;;2.90;99.90;;;;;;5055194;28;19955;-51
2022/01/11 03:53:25;;;;;;;;;;;3.10;99.90;;;;;;5037376;28;19909;-51
2022/01/11 03:58:17;;;;;;;;;;;3.10;99.90;;;;;;5055043;28;19931;-48
2022/01/11 04:00:43;;;;;;;;;;;3.10;99.90;;;;;;5054687;28;19909;-50
2022/01/11 04:03:09;;;;;;;;;;;3.10;99.90;;;;;;5054921;28;19970;-52
2022/01/11 04:05:35;;;;;;;;;;;3.10;99.90;;;;;;5054547;28;20362;-46
2022/01/11 04:08:01;;;;;;;;;;;3.20;99.90;;;;;;5054484;28;19909;-47
2022/01/11 04:10:27;;;;;;;;;;;3.20;99.90;;;;;;5054424;28;19915;-50
2022/01/11 04:12:53;;;;;;;;;;;3.20;99.90;;;;;;5054832;28;20286;-45
2022/01/11 04:15:18;;;;;;;;;;;3.30;99.90;;;;;;5054753;28;19996;-48
2022/01/11 04:17:44;;;;;;;;;;;3.40;99.90;;;;;;5055148;28;20015;-46
2022/01/11 04:20:10;;;;;;;;;;;3.40;99.90;;;;;;5054760;28;19908;-45
2022/01/11 04:22:35;;;;;;;;;;;3.40;99.90;;;;;;5054591;28;19928;-46
2022/01/11 04:25:01;;;;;;;;;;;3.40;99.90;;;;;;5054525;28;19978;-47
2022/01/11 04:27:26;;;;;;;;;;;3.40;99.90;;;;;;5054508;28;19948;-45
2022/01/11 04:29:52;;;;;;;;;;;3.40;99.90;;;;;;5054533;28;19966;-48
2022/01/11 04:32:17;;;;;;;;;;;3.30;99.90;;;;;;5054132;28;20270;-44
2022/01/11 04:34:43;;;;;;;;;;;3.30;99.90;;;;;;5036621;28;19909;-47
2022/01/11 04:37:08;;;;;;;;;;;3.40;99.90;;;;;;5054461;28;20409;-47
2022/01/11 04:39:34;;;;;;;;;;;3.30;99.90;;;;;;5054440;28;19913;-48
2022/01/11 04:41:59;;;;;;;;;;;3.40;99.90;;;;;;5054136;28;19915;-46
2022/01/11 04:44:25;;;;;;;;;;;3.40;99.90;;;;;;5054226;28;19920;-47
2022/01/11 04:46:50;;;;;;;;;;;3.50;99.90;;;;;;5054611;28;19909;-45
2022/01/11 04:49:16;;;;;;;;;;;3.50;99.90;;;;;;5053705;28;19909;-49
2022/01/11 04:51:42;;;;;;;;;;;3.60;99.90;;;;;;5054101;28;19912;-48
2022/01/11 04:54:07;;;;;;;;;;;3.60;99.90;;;;;;5054034;28;19913;-48
2022/01/11 04:56:33;;;;;;;;;;;3.60;99.90;;;;;;5053794;28;19953;-46
2022/01/11 04:58:58;;;;;;;;;;;3.50;99.90;;;;;;5053986;28;20319;-47
2022/01/11 05:01:24;;;;;;;;;;;3.50;99.90;;;;;;5054041;28;19936;-47
2022/01/11 05:03:50;;;;;;;;;;;3.50;99.90;;;;;;5053542;28;19916;-48
2022/01/11 05:06:15;;;;;;;;;;;3.50;99.90;;;;;;5053832;28;19909;-46
2022/01/11 05:08:42;;;;;;;;;;;3.40;99.90;;;;;;5035848;28;19909;-49
2022/01/11 05:11:08;;;;;;;;;;;3.40;99.90;;;;;;5053883;28;19996;-50
2022/01/11 05:13:34;;;;;;;;;;;3.30;99.90;;;;;;5053846;28;20001;-50
2022/01/11 05:16:02;;;;;;;;;;;3.30;99.90;;;;;;5053657;28;19923;-47
2022/01/11 05:18:28;;;;;;;;;;;3.20;99.90;;;;;;5053581;28;19939;-49
2022/01/11 05:20:53;;;;;;;;;;;3.20;99.90;;;;;;5053755;28;19909;-46
2022/01/11 05:23:19;;;;;;;;;;;3.30;99.90;;;;;;5053643;28;19982;-48
2022/01/11 05:25:44;;;;;;;;;;;3.10;99.90;;;;;;5057518;28;19913;-46
2022/01/11 05:28:10;;;;;;;;;;;3.10;99.90;;;;;;5057912;28;19956;-47
2022/01/11 05:30:36;;;;;;;;;;;3.10;99.90;;;;;;5057400;28;19909;-46
2022/01/11 05:33:01;;;;;;;;;;;3.00;99.90;;;;;;5076817;28;19959;-46
2022/01/11 05:35:27;;;;;;;;;;;3.00;99.90;;;;;;5077484;28;19912;-47
2022/01/11 05:37:53;;;;;;;;;;;3.00;99.90;;;;;;5067811;28;19909;-50
2022/01/11 05:40:19;;;;;;;;;;;3.10;99.90;;;;;;5057419;28;20256;-49
2022/01/11 05:42:46;;;;;;;;;;;3.20;99.90;;;;;;5060070;28;19993;-48
2022/01/11 05:45:12;;;;;;;;;;;3.30;99.90;;;;;;5075292;28;19916;-48
2022/01/11 05:47:38;;;;;;;;;;;3.30;99.90;;;;;;5075314;28;20366;-49
2022/01/11 05:50:06;;;;;;;;;;;3.30;99.90;;;;;;5072089;28;19919;-50
2022/01/11 05:52:32;;;;;;;;;;;3.30;99.90;;;;;;5059210;28;19920;-49
2022/01/11 05:54:57;;;;;;;;;;;3.30;99.90;;;;;;5058918;28;20227;-48
2022/01/11 05:57:23;;;;;;;;;;;3.20;99.90;;;;;;5072300;28;19919;-51
2022/01/11 05:59:48;;;;;;;;;;;3.10;99.90;;;;;;5074268;28;19913;-47
2022/01/11 06:02:14;;;;;;;;;;;3.00;99.90;;;;;;5072810;28;19912;-46
2022/01/11 06:04:40;;;;;;;;;;;3.00;99.90;;;;;;5062691;28;20004;-48
2022/01/11 06:07:05;;;;;;;;;;;2.90;99.90;;;;;;5065149;28;20285;-48
2022/01/11 06:09:31;;;;;;;;;;;3.00;99.90;;;;;;5076333;28;20330;-46
2022/01/11 06:11:56;;;;;;;;;;;3.10;99.90;;;;;;5065946;28;19967;-51
2022/01/11 06:14:22;;;;;;;;;;;3.10;99.90;;;;;;5071203;28;19920;-46
2022/01/11 06:16:48;;;;;;;;;;;3.10;99.90;;;;;;5076463;28;19909;-49
2022/01/11 06:19:14;;;;;;;;;;;3.10;99.90;;;;;;5072588;28;20371;-46
2022/01/11 06:21:39;;;;;;;;;;;3.00;99.90;;;;;;5070089;28;19913;-48
2022/01/11 06:24:05;;;;;;;;;;;3.10;99.90;;;;;;5076347;28;19927;-47
2022/01/11 06:26:31;;;;;;;;;;;3.20;99.90;;;;;;5075958;28;19916;-47
2022/01/11 06:28:57;;;;;;;;;;;3.20;99.90;;;;;;5058250;28;19909;-51
2022/01/11 06:31:23;;;;;;;;;;;3.30;99.90;;;;;;5076705;28;20305;-50
2022/01/11 06:33:49;;;;;;;;;;;3.30;99.90;;;;;;5076245;28;19908;-46
2022/01/11 06:36:14;;;;;;;;;;;3.40;99.90;;;;;;5074380;28;20347;-50
2022/01/11 06:38:41;;;;;;;;;;;3.40;99.90;;;;;;5075594;28;20343;-47
2022/01/11 06:41:07;;;;;;;;;;;3.50;99.90;;;;;;5075968;28;19908;-49
2022/01/11 06:43:33;;;;;;;;;;;3.50;99.90;;;;;;5076057;28;19942;-46
2022/01/11 06:45:58;;;;;;;;;;;3.50;99.90;;;;;;5075786;28;19909;-49
2022/01/11 06:48:24;;;;;;;;;;;3.50;99.90;;;;;;5076100;28;19908;-47
2022/01/11 06:50:49;;;;;;;;;;;3.60;99.90;;;;;;5075602;28;19909;-49
2022/01/11 06:53:15;;;;;;;;;;;3.50;99.90;;;;;;5075343;28;20003;-47
2022/01/11 06:55:40;;;;;;;;;;;3.50;99.90;;;;;;5075242;28;20075;-50
2022/01/11 06:58:07;;;;;;;;;;;3.60;99.90;;;;;;5075436;28;19908;-50
2022/01/11 07:00:33;;;;;;;;;;;3.50;99.90;;;;;;5057258;28;19920;-49
2022/01/11 07:02:58;;;;;;;;;;;3.60;99.90;;;;;;5075328;28;20274;-46
2022/01/11 07:05:24;;;;;;;;;;;3.60;99.90;;;;;;5075197;28;19917;-50
2022/01/11 07:07:50;;;;;;;;;;;3.50;99.90;;;;;;5076077;28;19915;-47
2022/01/11 07:10:16;;;;;;;;;;;3.60;99.90;;;;;;5075695;28;19959;-48
2022/01/11 07:12:41;;;;;;;;;;;3.50;99.90;;;;;;5075557;28;19955;-48
2022/01/11 07:15:08;;;;;;;;;;;3.50;99.90;;;;;;5075238;28;19916;-49
2022/01/11 07:17:33;;;;;;;;;;;3.60;99.90;;;;;;5075080;28;20398;-47
2022/01/11 07:19:59;;;;;;;;;;;3.60;99.90;;;;;;5075198;28;19924;-51
2022/01/11 07:22:24;;;;;;;;;;;3.70;99.90;;;;;;5074985;28;20007;-50
2022/01/11 07:24:50;;;;;;;;;;;3.70;99.90;;;;;;5074839;28;20022;-48
2022/01/11 07:27:15;;;;;;;;;;;3.60;99.90;;;;;;5075115;28;19908;-50
2022/01/11 07:29:41;;;;;;;;;;;3.60;99.90;;;;;;5075283;28;19908;-50
2022/01/11 07:32:07;;;;;;;;;;;3.40;99.90;;;;;;5074493;28;19931;-46
2022/01/11 07:34:32;;;;;;;;;;;3.40;99.90;;;;;;5074505;28;19919;-48
2022/01/11 07:36:58;;;;;;;;;;;3.50;99.90;;;;;;5074448;28;19977;-45
2022/01/11 07:39:24;;;;;;;;;;;3.50;99.90;;;;;;5074830;28;19908;-50
2022/01/11 07:41:50;;;;;;;;;;;3.50;99.90;;;;;;5074476;28;19931;-48
2022/01/11 07:44:16;;;;;;;;;;;3.50;99.90;;;;;;5074328;28;19916;-49
2022/01/11 07:46:42;;;;;;;;;;;3.50;99.90;;;;;;5073968;28;20341;-45
2022/01/11 07:49:08;;;;;;;;;;;3.50;99.90;;;;;;5074725;28;19951;-47
2022/01/11 07:51:33;;;;;;;;;;;3.50;99.90;;;;;;5074523;28;19912;-47
2022/01/11 07:53:59;;;;;;;;;;;3.50;99.90;;;;;;5074747;28;19909;-47
2022/01/11 07:56:24;;;;;;;;;;;3.20;99.90;;;;;;5074577;28;19909;-46
2022/01/11 07:58:50;;;;;;;;;;;2.90;99.90;;;;;;5074261;28;20011;-48
2022/01/11 08:01:16;;;;;;;;;;;2.80;99.90;;;;;;5074195;28;19912;-49
2022/01/11 08:03:41;;;;;;;;;;;2.80;99.90;;;;;;5074050;28;20278;-49
2022/01/11 08:06:07;;;;;;;;;;;3.00;99.90;;;;;;5073974;28;20021;-48
2022/01/11 08:08:33;;;;;;;;;;;3.20;99.90;;;;;;5074505;28;19916;-49
2022/01/11 08:10:59;;;;;;;;;;;3.30;99.90;;;;;;5073953;28;19913;-47
2022/01/11 08:13:25;;;;;;;;;;;3.20;99.90;;;;;;5074368;28;19954;-50
2022/01/11 08:15:51;;;;;;;;;;;3.40;99.90;;;;;;5074210;28;20329;-49
2022/01/11 08:18:17;;;;;;;;;;;3.40;99.90;;;;;;5074159;28;19913;-45
2022/01/11 08:20:44;;;;;;;;;;;3.50;99.90;;;;;;5056117;28;19995;-47
2022/01/11 08:23:12;;;;;;;;;;;3.30;99.90;;;;;;5074166;28;19920;-51
2022/01/11 08:25:38;;;;;;;;;;;3.50;99.90;;;;;;5056246;28;19916;-52
2022/01/11 08:28:04;;;;;;;;;;;3.20;99.90;;;;;;5055960;28;20427;-46
2022/01/11 08:30:30;;;;;;;;;;;3.20;99.90;;;;;;5073904;28;19999;-51
2022/01/11 08:32:55;;;;;;;;;;;3.30;99.90;;;;;;5073845;28;19999;-46
2022/01/11 08:35:24;;;;;;;;;;;3.50;99.90;;;;;;5073426;28;19908;-47
2022/01/11 08:37:50;;;;;;;;;;;3.50;99.90;;;;;;5074160;28;20000;-46
2022/01/11 08:40:16;;;;;;;;;;;3.30;99.90;;;;;;5073551;28;19908;-47
2022/01/11 08:42:41;;;;;;;;;;;3.30;99.90;;;;;;5073417;28;19909;-51
2022/01/11 08:45:07;;;;;;;;;;;3.40;99.90;;;;;;5073850;28;19916;-48
2022/01/11 08:47:34;;;;;;;;;;;3.30;99.90;;;;;;5073727;28;20003;-47
2022/01/11 08:50:02;;;;;;;;;;;3.30;99.90;;;;;;5073917;28;19908;-47
2022/01/11 08:52:28;;;;;;;;;;;3.40;99.90;;;;;;5055805;28;19909;-46
2022/01/11 08:54:54;;;;;;;;;;;3.30;99.90;;;;;;5073621;28;19908;-49
2022/01/11 08:57:20;;;;;;;;;;;3.10;99.90;;;;;;5073732;28;19908;-48
2022/01/11 08:59:46;;;;;;;;;;;3.10;99.90;;;;;;5073131;28;19999;-47
2022/01/11 09:02:12;;;;;;;;;;;3.10;99.90;;;;;;5073468;28;19915;-49
2022/01/11 09:04:38;;;;;;;;;;;3.10;99.90;;;;;;5073233;28;19989;-47
2022/01/11 09:07:03;;;;;;;;;;;2.90;99.90;;;;;;5073505;28;19996;-47
2022/01/11 09:09:31;;;;;;;;;;;3.00;99.90;;;;;;5073336;28;19951;-45
2022/01/11 09:11:57;;;;;;;;;;;2.80;99.90;;;;;;5055778;28;19908;-46
2022/01/11 09:14:23;;;;;;;;;;;2.80;99.90;;;;;;5073837;28;19957;-49
2022/01/11 09:16:49;;;;;;;;;;;2.70;99.90;;;;;;5073383;28;19912;-45
2022/01/11 09:19:15;;;;;;;;;;;2.80;99.90;;;;;;5073435;28;19916;-50
2022/01/11 09:21:41;;;;;;;;;;;2.90;99.90;;;;;;5073095;28;19924;-48
2022/01/11 09:24:08;;;;;;;;;;;2.90;99.90;;;;;;5073187;28;20020;-47
2022/01/11 09:26:34;;;;;;;;;;;3.20;99.90;;;;;;5073286;28;20012;-46
2022/01/11 09:29:00;;;;;;;;;;;3.40;99.90;;;;;;5072793;28;19948;-48
2022/01/11 09:31:25;;;;;;;;;;;3.60;99.90;;;;;;5073680;28;19909;-45
2022/01/11 09:33:51;;;;;;;;;;;3.80;99.90;;;;;;5073039;28;19916;-48
2022/01/11 09:36:16;;;;;;;;;;;3.60;99.90;;;;;;5073540;28;19915;-49
2022/01/11 09:38:42;;;;;;;;;;;3.80;99.90;;;;;;5073026;28;19999;-48
2022/01/11 09:41:08;;;;;;;;;;;4.00;99.90;;;;;;5072803;28;20012;-47
2022/01/11 09:43:33;;;;;;;;;;;4.10;99.90;;;;;;5072943;28;19919;-51
2022/01/11 09:45:59;;;;;;;;;;;3.90;99.90;;;;;;5072621;28;19909;-46
2022/01/11 09:48:26;;;;;;;;;;;3.30;99.90;;;;;;5072798;28;20413;-47
2022/01/11 09:50:52;;;;;;;;;;;3.20;99.90;;;;;;5073234;28;19909;-46
2022/01/11 09:53:18;;;;;;;;;;;3.40;99.90;;;;;;5072888;28;19962;-47
2022/01/11 09:55:44;;;;;;;;;;;3.50;99.90;;;;;;5072763;28;20000;-49
2022/01/11 09:58:10;;;;;;;;;;;3.30;99.90;;;;;;5054888;28;19915;-49
2022/01/11 10:00:36;;;;;;;;;;;3.20;99.90;;;;;;5072949;28;19984;-47
2022/01/11 10:03:03;;;;;;;;;;;3.10;99.90;;;;;;5072460;28;19961;-44
2022/01/11 10:05:28;;;;;;;;;;;3.30;99.90;;;;;;5071961;28;19924;-47
2022/01/11 10:07:54;;;;;;;;;;;3.40;99.90;;;;;;5072914;28;20278;-48
2022/01/11 10:10:21;;;;;;;;;;;3.30;99.90;;;;;;5074671;28;19909;-48
2022/01/11 10:12:48;;;;;;;;;;;3.40;99.90;;;;;;5076177;28;20363;-50
2022/01/11 10:15:14;;;;;;;;;;;3.50;99.90;;;;;;5076311;28;19919;-48
2022/01/11 10:17:41;;;;;;;;;;;4.00;99.90;;;;;;5076417;28;19908;-47
2022/01/11 10:20:07;;;;;;;;;;;4.00;99.90;;;;;;5076037;28;20384;-51
2022/01/11 10:22:33;;;;;;;;;;;3.80;99.90;;;;;;5076191;28;19928;-48
2022/01/11 10:24:59;;;;;;;;;;;3.70;99.90;;;;;;5058399;28;19971;-50
2022/01/11 10:27:26;;;;;;;;;;;3.80;99.90;;;;;;5076229;28;19908;-50
2022/01/11 10:30:12;;;;;;;;;;;3.70;99.90;;;;;;5076179;28;19931;-49
2022/01/11 10:32:42;;;;;;;;;;;3.70;99.90;;;;;;5075835;28;20321;-48
2022/01/11 10:35:10;;;;;;;;;;;3.60;99.90;;;;;;5058000;28;19908;-48
2022/01/11 10:37:36;;;;;;;;;;;3.60;99.90;;;;;;5076226;28;20270;-45
2022/01/11 10:40:05;;;;;;;;;;;3.50;99.90;;;;;;5075870;28;19912;-48
2022/01/11 10:42:33;;;;;;;;;;;3.40;99.90;;;;;;5076375;28;20007;-52
2022/01/11 10:45:10;;;;;;;;;;;3.40;99.90;;;;;;5075771;28;20389;-48
2022/01/11 10:47:36;;;;;;;;;;;3.50;99.90;;;;;;5076030;28;19915;-51
2022/01/11 10:50:05;;;;;;;;;;;3.20;99.90;;;;;;5075793;28;19928;-49
2022/01/11 10:52:32;;;;;;;;;;;3.30;99.90;;;;;;5075844;28;20366;-47
2022/01/11 10:54:58;;;;;;;;;;;3.30;99.90;;;;;;5075802;28;19909;-47
2022/01/11 10:57:25;;;;;;;;;;;3.20;99.90;;;;;;5075704;28;20282;-51
2022/01/11 11:00:09;;;;;;;;;;;3.40;99.90;;;;;;5075845;28;19909;-49
2022/01/11 11:02:35;;;;;;;;;;;3.70;99.90;;;;;;5076038;28;19980;-49
2022/01/11 11:05:30;;;;;;;;;;;4.00;99.90;;;;;;5075498;28;19923;-46
2022/01/11 11:07:57;;;;;;;;;;;4.10;99.90;;;;;;5048402;28;20007;-49
2022/01/11 11:10:40;;;;;;;;;;;4.10;99.90;;;;;;5075230;28;19912;-46
2022/01/11 11:13:07;;;;;;;;;;;4.40;99.90;;;;;;5075403;28;19909;-49
2022/01/11 11:15:35;;;;;;;;;;;3.80;99.90;;;;;;5075827;28;20350;-48
2022/01/11 11:18:02;;;;;;;;;;;3.40;99.90;;;;;;5075085;28;20366;-50
2022/01/11 11:20:27;;;;;;;;;;;3.50;99.90;;;;;;5057438;28;19915;-49
2022/01/11 11:22:53;;;;;;;;;;;3.70;99.90;;;;;;5074629;28;19920;-49
2022/01/11 11:25:19;;;;;;;;;;;3.70;99.90;;;;;;5074987;28;19922;-49
2022/01/11 11:27:44;;;;;;;;;;;3.80;99.90;;;;;;5074713;28;20054;-48
2022/01/11 11:30:10;;;;;;;;;;;4.00;99.90;;;;;;5075138;28;19962;-50
2022/01/11 11:32:36;;;;;;;;;;;4.30;99.90;;;;;;5075111;28;20277;-46
2022/01/11 11:35:02;;;;;;;;;;;4.10;99.90;;;;;;5074881;28;20289;-47
2022/01/11 11:37:31;;;;;;;;;;;4.10;99.90;;;;;;5075099;28;19908;-49
2022/01/11 11:40:02;;;;;;;;;;;3.40;99.90;;;;;;5074620;28;19931;-48
2022/01/11 11:42:29;;;;;;;;;;;3.30;99.90;;;;;;5074882;28;19908;-50
2022/01/11 11:44:56;;;;;;;;;;;3.40;99.90;;;;;;5074739;28;19917;-49
2022/01/11 11:47:30;;;;;;;;;;;3.50;99.90;;;;;;5074612;28;20314;-51
2022/01/11 11:49:57;;;;;;;;;;;3.70;99.90;;;;;;5056864;28;19962;-49
2022/01/11 11:52:22;;;;;;;;;;;4.00;99.90;;;;;;5074761;28;20411;-46
2022/01/11 11:54:52;;;;;;;;;;;3.70;99.90;;;;;;5074137;28;19908;-51
2022/01/11 11:57:18;;;;;;;;;;;3.70;99.90;;;;;;5074550;28;20391;-50
2022/01/11 12:00:11;;;;;;;;;;;3.50;99.90;;;;;;5074211;28;19961;-46
2022/01/11 12:02:44;;;;;;;;;;;3.60;99.90;;;;;;5072261;28;19916;-49
2022/01/11 12:05:15;;;;;;;;;;;3.50;99.90;;;;;;5074359;28;19917;-51
2022/01/11 12:07:43;;;;;;;;;;;3.70;99.90;;;;;;5074325;28;20234;-50
2022/01/11 12:10:14;;;;;;;;;;;3.80;99.90;;;;;;5074286;28;19908;-48
2022/01/11 12:12:48;;;;;;;;;;;3.70;99.90;;;;;;5074424;28;19908;-48
2022/01/11 12:15:22;;;;;;;;;;;3.80;99.90;;;;;;5074053;28;19995;-48
2022/01/11 12:17:57;;;;;;;;;;;4.00;99.90;;;;;;5074219;28;19916;-48
2022/01/11 12:20:41;;;;;;;;;;;4.10;99.90;;;;;;5074260;28;19912;-47
2022/01/11 12:23:07;;;;;;;;;;;4.40;99.90;;;;;;5073475;28;19956;-45
2022/01/11 12:25:37;;;;;;;;;;;4.50;99.90;;;;;;5073722;28;19920;-51
2022/01/11 12:28:06;;;;;;;;;;;4.50;99.90;;;;;;5073799;28;20031;-46
2022/01/11 12:30:32;;;;;;;;;;;4.40;99.90;;;;;;5073715;28;20373;-48
2022/01/11 12:33:09;;;;;;;;;;;4.50;99.90;;;;;;5073582;28;19909;-51
2022/01/11 12:35:49;;;;;;;;;;;4.50;99.90;;;;;;5073723;28;19915;-48
2022/01/11 12:38:14;;;;;;;;;;;4.70;99.90;;;;;;5073388;28;19909;-47
2022/01/11 12:40:40;;;;;;;;;;;4.90;99.90;;;;;;5073700;28;20270;-53
2022/01/11 12:43:16;;;;;;;;;;;4.90;99.90;;;;;;5073669;28;19908;-47
2022/01/11 12:46:03;;;;;;;;;;;4.80;99.90;;;;;;5073565;28;20401;-51
2022/01/11 12:48:48;;;;;;;;;;;4.80;99.90;;;;;;5073520;28;19916;-46
2022/01/11 12:51:23;;;;;;;;;;;4.80;99.90;;;;;;5073432;28;20365;-48
2022/01/11 12:53:49;;;;;;;;;;;4.80;99.90;;;;;;5074034;28;19953;-46
2022/01/11 12:56:17;;;;;;;;;;;4.80;99.90;;;;;;5073967;28;20003;-48
2022/01/11 12:58:43;;;;;;;;;;;4.80;99.90;;;;;;5073374;28;19917;-50
2022/01/11 13:01:18;;;;;;;;;;;4.90;99.90;;;;;;5073323;28;19956;-48
2022/01/11 13:03:47;;;;;;;;;;;4.50;99.90;;;;;;5073163;28;19915;-48
2022/01/11 13:06:13;;;;;;;;;;;4.10;99.90;;;;;;5073207;28;19966;-50
2022/01/11 13:08:42;;;;;;;;;;;4.10;99.90;;;;;;5054981;28;19908;-48
2022/01/11 13:11:17;;;;;;;;;;;4.20;99.90;;;;;;5073292;28;20004;-47
2022/01/11 13:13:51;;;;;;;;;;;3.90;99.90;;;;;;5073228;28;19964;-48
2022/01/11 13:16:21;;;;;;;;;;;3.50;99.90;;;;;;5072674;28;19909;-48
2022/01/11 13:18:47;;;;;;;;;;;3.50;99.90;;;;;;5072954;28;19908;-48
2022/01/11 13:21:13;;;;;;;;;;;3.70;99.90;;;;;;5073140;28;20338;-47
2022/01/11 13:23:52;;;;;;;;;;;3.70;99.90;;;;;;5072664;28;20016;-47
2022/01/11 13:26:18;;;;;;;;;;;3.50;99.90;;;;;;5072613;28;19913;-50
2022/01/11 13:28:46;;;;;;;;;;;3.50;99.90;;;;;;5054962;28;19958;-47
2022/01/11 13:31:13;;;;;;;;;;;3.50;99.90;;;;;;5073437;28;19953;-45
2022/01/11 13:33:40;;;;;;;;;;;3.40;99.90;;;;;;5072939;28;19908;-49
2022/01/11 13:36:10;;;;;;;;;;;3.60;99.90;;;;;;5061994;28;19919;-46
2022/01/11 13:38:36;;;;;;;;;;;3.60;99.90;;;;;;5067932;28;19934;-50
2022/01/11 13:41:02;;;;;;;;;;;3.40;99.90;;;;;;5058664;28;19912;-50
2022/01/11 13:43:38;;;;;;;;;;;3.40;99.90;;;;;;5056618;28;19908;-45
2022/01/11 13:46:05;;;;;;;;;;;3.30;99.90;;;;;;5069939;28;19916;-50
2022/01/11 13:48:35;;;;;;;;;;;3.50;99.90;;;;;;5068817;28;19975;-50
2022/01/11 13:51:01;;;;;;;;;;;3.60;99.90;;;;;;5062611;28;19908;-50
2022/01/11 13:53:28;;;;;;;;;;;3.60;99.90;;;;;;5055721;28;20263;-47
2022/01/11 13:55:58;;;;;;;;;;;3.70;99.90;;;;;;5058626;28;19924;-48
2022/01/11 13:58:24;;;;;;;;;;;3.90;99.90;;;;;;5056720;28;19972;-48
2022/01/11 14:00:49;;;;;;;;;;;4.10;99.90;;;;;;5076187;28;19930;-48
2022/01/11 14:03:17;;;;;;;;;;;3.80;99.90;;;;;;5075821;28;19959;-49
2022/01/11 14:05:43;;;;;;;;;;;3.90;99.90;;;;;;5074180;28;19916;-46
2022/01/11 14:08:11;;;;;;;;;;;3.70;99.90;;;;;;5075613;28;19927;-54
2022/01/11 14:10:37;;;;;;;;;;;3.60;99.90;;;;;;5075002;28;19961;-48
2022/01/11 14:13:06;;;;;;;;;;;3.40;99.90;;;;;;5075212;28;19931;-51
2022/01/11 14:15:32;;;;;;;;;;;3.30;99.90;;;;;;5074650;28;20296;-47
2022/01/11 14:17:58;;;;;;;;;;;3.40;99.90;;;;;;5074423;28;19949;-50
2022/01/11 14:20:28;;;;;;;;;;;3.50;99.90;;;;;;5074373;28;19904;-52
2022/01/11 14:22:55;;;;;;;;;;;3.60;99.90;;;;;;5075731;28;20258;-47
2022/01/11 14:25:21;;;;;;;;;;;3.60;99.90;;;;;;5076163;28;19908;-54
2022/01/11 14:27:56;;;;;;;;;;;3.70;99.90;;;;;;5075876;28;19909;-50
2022/01/11 14:30:21;;;;;;;;;;;3.70;99.90;;;;;;5075830;28;19904;-48
2022/01/11 14:32:52;;;;;;;;;;;3.30;99.90;;;;;;5076303;28;20330;-47
2022/01/11 14:35:18;;;;;;;;;;;3.20;99.90;;;;;;5076334;28;19911;-47